Time;durP1;ratioP1;P1;durP2;ratioP2;P2;SDS_P1;SDS_P2;PMS_P1;PMS_P2;Temp;Humidity;BMP_temperature;BMP_pressure;BME280_temperature;BME280_humidity;BME280_pressure;Samples;Min_cycle;Max_cycle;Signal;HPM_P1;HPM_P2
2021/08/17 00:01:12;;;;;;;7.20;1.73;;;;;;;;;;4822398;29;20038;-74
2021/08/17 00:03:37;;;;;;;3.75;1.40;;;;;;;;;;4823050;29;20045;-73
2021/08/17 00:06:04;;;;;;;6.68;2.08;;;;;;;;;;4824433;29;20042;-74
2021/08/17 00:08:30;;;;;;;5.95;1.45;;;;;;;;;;4821748;29;20091;-72
2021/08/17 00:10:57;;;;;;;5.53;1.65;;;;;;;;;;4821347;29;20033;-72
2021/08/17 00:13:22;;;;;;;4.38;1.60;;;;;;;;;;4821621;29;20064;-76
2021/08/17 00:15:48;;;;;;;5.75;1.50;;;;;;;;;;4820842;29;20066;-75
2021/08/17 00:18:14;;;;;;;7.65;1.95;;;;;;;;;;4820754;29;20042;-76
2021/08/17 00:20:41;;;;;;;4.55;1.70;;;;;;;;;;4822360;29;20072;-74
2021/08/17 00:23:07;;;;;;;6.00;1.95;;;;;;;;;;4820685;29;20026;-76
2021/08/17 00:25:34;;;;;;;5.50;1.77;;;;;;;;;;4821013;29;20508;-76
2021/08/17 00:28:00;;;;;;;6.13;2.00;;;;;;;;;;4821904;29;20069;-74
2021/08/17 00:30:25;;;;;;;5.95;1.77;;;;;;;;;;4820774;29;20058;-77
2021/08/17 00:32:51;;;;;;;3.63;1.45;;;;;;;;;;4820503;29;20027;-77
2021/08/17 00:35:17;;;;;;;7.18;2.05;;;;;;;;;;4821759;29;20061;-76
2021/08/17 00:37:42;;;;;;;6.55;2.03;;;;;;;;;;4821853;29;20027;-77
2021/08/17 00:40:08;;;;;;;4.93;1.50;;;;;;;;;;4821515;29;20495;-78
2021/08/17 00:42:45;;;;;;;5.18;1.98;;;;;;;;;;4820395;29;20027;-78
2021/08/17 00:45:19;;;;;;;8.43;2.05;;;;;;;;;;4821653;29;20037;-75
2021/08/17 00:47:44;;;;;;;6.93;2.10;;;;;;;;;;4820470;29;20035;-76
2021/08/17 00:50:10;;;;;;;7.28;1.95;;;;;;;;;;4835291;29;20466;-77
2021/08/17 00:52:37;;;;;;;6.07;1.77;;;;;;;;;;4821655;29;20372;-75
2021/08/17 00:55:03;;;;;;;5.43;2.50;;;;;;;;;;4820244;29;20483;-74
2021/08/17 00:57:28;;;;;;;4.40;2.10;;;;;;;;;;4832069;29;20030;-72
2021/08/17 00:59:54;;;;;;;3.65;1.60;;;;;;;;;;4821921;29;20030;-74
2021/08/17 01:02:19;;;;;;;5.75;1.60;;;;;;;;;;4821762;29;20035;-73
2021/08/17 01:04:45;;;;;;;5.13;1.88;;;;;;;;;;4821612;29;20395;-71
2021/08/17 01:07:11;;;;;;;5.05;1.70;;;;;;;;;;4819618;29;20154;-73
2021/08/17 01:09:38;;;;;;;5.38;2.28;;;;;;;;;;4819966;29;20034;-72
2021/08/17 01:12:04;;;;;;;4.70;1.50;;;;;;;;;;4820394;29;20030;-71
2021/08/17 01:14:31;;;;;;;8.70;2.90;;;;;;;;;;4820900;29;20337;-72
2021/08/17 01:16:57;;;;;;;4.55;1.55;;;;;;;;;;4819378;29;20114;-72
2021/08/17 01:19:23;;;;;;;18.52;3.15;;;;;;;;;;4820501;29;20038;-73
2021/08/17 01:21:49;;;;;;;4.40;1.83;;;;;;;;;;4834886;29;20512;-72
2021/08/17 01:24:16;;;;;;;7.55;2.88;;;;;;;;;;4819866;29;20061;-73
2021/08/17 01:26:42;;;;;;;5.97;2.10;;;;;;;;;;4821672;29;20492;-73
2021/08/17 01:29:10;;;;;;;5.38;1.70;;;;;;;;;;4821060;29;20480;-72
2021/08/17 01:31:36;;;;;;;5.60;1.73;;;;;;;;;;4822184;29;20117;-78
2021/08/17 01:34:02;;;;;;;4.28;1.45;;;;;;;;;;4820655;29;20038;-75
2021/08/17 01:36:28;;;;;;;3.72;1.40;;;;;;;;;;4820986;29;20048;-76
2021/08/17 01:38:53;;;;;;;6.13;1.27;;;;;;;;;;4819605;29;20050;-76
2021/08/17 01:41:19;;;;;;;6.45;1.80;;;;;;;;;;4819968;29;20547;-73
2021/08/17 01:43:46;;;;;;;6.18;1.63;;;;;;;;;;4821428;29;20091;-73
2021/08/17 01:46:12;;;;;;;7.60;2.15;;;;;;;;;;4821209;29;20035;-73
2021/08/17 01:48:38;;;;;;;4.38;1.55;;;;;;;;;;4821434;29;20065;-73
2021/08/17 01:51:05;;;;;;;3.97;1.90;;;;;;;;;;4821509;29;20046;-73
2021/08/17 01:53:32;;;;;;;6.72;2.03;;;;;;;;;;4820367;29;20042;-73
2021/08/17 01:56:08;;;;;;;7.07;1.98;;;;;;;;;;4821352;29;20062;-73
2021/08/17 01:58:33;;;;;;;4.45;1.90;;;;;;;;;;4821696;29;20069;-73
2021/08/17 02:00:59;;;;;;;4.13;1.42;;;;;;;;;;4822257;29;20084;-74
2021/08/17 02:03:24;;;;;;;4.07;1.50;;;;;;;;;;4834574;29;20455;-73
2021/08/17 02:05:50;;;;;;;7.82;2.75;;;;;;;;;;4819434;29;20034;-74
2021/08/17 02:08:16;;;;;;;4.43;1.90;;;;;;;;;;4834454;29;20464;-73
2021/08/17 02:10:41;;;;;;;4.93;2.00;;;;;;;;;;4833868;29;20534;-71
2021/08/17 02:13:08;;;;;;;3.65;2.20;;;;;;;;;;4818650;29;20050;-71
2021/08/17 02:15:34;;;;;;;7.57;2.45;;;;;;;;;;4820601;29;20457;-71
2021/08/17 02:18:00;;;;;;;4.93;1.80;;;;;;;;;;4821286;29;20105;-73
2021/08/17 02:20:25;;;;;;;5.10;1.77;;;;;;;;;;4820474;29;20443;-73
2021/08/17 02:22:51;;;;;;;4.70;2.00;;;;;;;;;;4819291;29;20479;-71
2021/08/17 02:25:17;;;;;;;3.25;1.45;;;;;;;;;;4820280;29;20503;-73
2021/08/17 02:27:43;;;;;;;7.35;2.25;;;;;;;;;;4821032;29;20037;-71
2021/08/17 02:30:08;;;;;;;7.13;2.08;;;;;;;;;;4820319;29;20560;-73
2021/08/17 02:32:34;;;;;;;6.82;2.40;;;;;;;;;;4820327;29;20030;-73
2021/08/17 02:35:00;;;;;;;4.30;1.80;;;;;;;;;;4820737;29;20093;-72
2021/08/17 02:37:26;;;;;;;6.47;2.00;;;;;;;;;;4834106;29;20655;-73
2021/08/17 02:39:52;;;;;;;6.30;1.65;;;;;;;;;;4820532;29;20125;-73
2021/08/17 02:42:18;;;;;;;7.13;2.20;;;;;;;;;;4819231;29;20134;-72
2021/08/17 02:44:43;;;;;;;9.43;2.30;;;;;;;;;;4820852;29;20038;-72
2021/08/17 02:47:09;;;;;;;5.13;2.20;;;;;;;;;;4819127;29;20034;-74
2021/08/17 02:49:35;;;;;;;9.95;2.55;;;;;;;;;;4819452;29;20594;-73
2021/08/17 02:52:04;;;;;;;17.20;2.42;;;;;;;;;;4820766;29;20424;-73
2021/08/17 02:54:36;;;;;;;7.90;2.15;;;;;;;;;;4819116;29;20041;-75
2021/08/17 02:57:03;;;;;;;11.23;2.47;;;;;;;;;;4818819;29;20034;-77
2021/08/17 02:59:29;;;;;;;8.27;2.50;;;;;;;;;;4818801;29;20030;-74
2021/08/17 03:01:56;;;;;;;6.72;2.83;;;;;;;;;;4821034;29;20436;-76
2021/08/17 03:04:21;;;;;;;13.52;2.97;;;;;;;;;;4821332;29;20026;-75
2021/08/17 03:06:47;;;;;;;12.63;2.50;;;;;;;;;;4843668;29;20025;-71
2021/08/17 03:09:12;;;;;;;9.60;3.03;;;;;;;;;;4846860;29;20072;-73
2021/08/17 03:11:38;;;;;;;8.00;2.78;;;;;;;;;;4834230;29;20071;-76
2021/08/17 03:14:04;;;;;;;11.57;2.60;;;;;;;;;;4837207;29;20126;-75
2021/08/17 03:16:30;;;;;;;5.68;2.83;;;;;;;;;;4823192;29;20109;-75
2021/08/17 03:18:56;;;;;;;8.05;2.53;;;;;;;;;;4823504;29;20486;-76
2021/08/17 03:21:22;;;;;;;10.68;3.00;;;;;;;;;;4822909;29;20054;-75
2021/08/17 03:23:48;;;;;;;7.55;3.05;;;;;;;;;;4822939;29;20109;-76
2021/08/17 03:26:13;;;;;;;11.70;3.35;;;;;;;;;;4836811;29;20030;-76
2021/08/17 03:28:39;;;;;;;8.82;3.08;;;;;;;;;;4821792;29;20027;-75
2021/08/17 03:31:05;;;;;;;26.95;5.95;;;;;;;;;;4823141;29;20030;-74
2021/08/17 03:33:31;;;;;;;17.30;3.35;;;;;;;;;;4821617;29;20030;-76
2021/08/17 03:35:57;;;;;;;12.82;3.70;;;;;;;;;;4823105;29;20089;-76
2021/08/17 03:38:23;;;;;;;12.90;2.95;;;;;;;;;;4821071;29;20038;-74
2021/08/17 03:40:50;;;;;;;12.93;3.90;;;;;;;;;;4836575;29;20068;-74
2021/08/17 03:43:16;;;;;;;7.68;3.72;;;;;;;;;;4822373;29;20403;-74
2021/08/17 03:45:41;;;;;;;14.98;3.55;;;;;;;;;;4821146;29;20541;-73
2021/08/17 03:48:07;;;;;;;11.57;3.10;;;;;;;;;;4821782;29;20056;-74
2021/08/17 03:50:33;;;;;;;9.88;3.70;;;;;;;;;;4820773;29;20538;-73
2021/08/17 03:52:58;;;;;;;9.80;3.92;;;;;;;;;;4821042;29;20122;-75
2021/08/17 03:55:24;;;;;;;9.43;3.50;;;;;;;;;;4820882;29;20026;-75
2021/08/17 03:57:52;;;;;;;10.93;3.58;;;;;;;;;;4821344;29;20026;-73
2021/08/17 04:00:20;;;;;;;8.02;3.90;;;;;;;;;;4821610;29;20578;-72
2021/08/17 04:02:46;;;;;;;16.40;3.33;;;;;;;;;;4821119;29;20370;-73
2021/08/17 04:05:12;;;;;;;11.73;3.67;;;;;;;;;;4820436;29;20694;-77
2021/08/17 04:07:39;;;;;;;12.40;3.53;;;;;;;;;;4821963;29;20034;-75
2021/08/17 04:10:07;;;;;;;7.07;2.95;;;;;;;;;;4820268;29;20034;-76
2021/08/17 04:12:33;;;;;;;12.05;3.60;;;;;;;;;;4822002;29;20062;-75
2021/08/17 04:14:58;;;;;;;11.57;3.45;;;;;;;;;;4822030;29;20499;-76
2021/08/17 04:17:24;;;;;;;10.70;3.45;;;;;;;;;;4820113;29;20030;-75
2021/08/17 04:19:49;;;;;;;10.20;3.25;;;;;;;;;;4820707;29;20479;-75
2021/08/17 04:22:15;;;;;;;10.35;3.90;;;;;;;;;;4822146;29;20045;-75
2021/08/17 04:24:41;;;;;;;9.52;3.83;;;;;;;;;;4821073;29;20406;-76
2021/08/17 04:27:06;;;;;;;9.55;3.72;;;;;;;;;;4820612;29;20082;-72
2021/08/17 04:29:32;;;;;;;11.07;3.83;;;;;;;;;;4821897;29;20113;-73
2021/08/17 04:31:57;;;;;;;11.43;3.58;;;;;;;;;;4822086;29;20030;-72
2021/08/17 04:34:23;;;;;;;14.43;4.00;;;;;;;;;;4821828;29;20487;-73
2021/08/17 04:36:48;;;;;;;7.20;3.03;;;;;;;;;;4821730;29;20437;-73
2021/08/17 04:39:15;;;;;;;12.55;3.88;;;;;;;;;;4821466;29;20145;-74
2021/08/17 04:41:41;;;;;;;10.60;3.95;;;;;;;;;;4820615;29;20042;-72
2021/08/17 04:44:06;;;;;;;7.75;3.33;;;;;;;;;;4835888;29;20041;-73
2021/08/17 04:46:32;;;;;;;11.05;3.97;;;;;;;;;;4821905;29;20042;-71
2021/08/17 04:48:58;;;;;;;10.45;2.88;;;;;;;;;;4820330;29;20034;-73
2021/08/17 04:51:23;;;;;;;10.52;3.75;;;;;;;;;;4820536;29;20391;-74
2021/08/17 04:53:49;;;;;;;8.05;3.17;;;;;;;;;;4820005;29;20034;-71
2021/08/17 04:56:15;;;;;;;16.05;3.28;;;;;;;;;;4804999;29;20145;-74
2021/08/17 04:58:40;;;;;;;11.93;3.60;;;;;;;;;;4819594;29;20046;-73
2021/08/17 05:01:06;;;;;;;13.15;5.03;;;;;;;;;;4820138;29;20117;-72
2021/08/17 05:03:31;;;;;;;10.57;3.08;;;;;;;;;;4820064;29;20034;-72
2021/08/17 05:05:57;;;;;;;6.65;3.47;;;;;;;;;;4820039;29;20041;-73
2021/08/17 05:08:23;;;;;;;14.13;3.50;;;;;;;;;;4819573;29;20038;-72
2021/08/17 05:10:49;;;;;;;10.05;3.47;;;;;;;;;;4821387;29;20091;-71
2021/08/17 05:13:14;;;;;;;10.27;3.53;;;;;;;;;;4821462;29;20055;-71
2021/08/17 05:15:40;;;;;;;10.20;3.30;;;;;;;;;;4819745;29;20038;-73
2021/08/17 05:18:06;;;;;;;5.63;3.33;;;;;;;;;;4821356;29;20034;-73
2021/08/17 05:20:32;;;;;;;14.25;4.05;;;;;;;;;;4819831;29;20077;-71
2021/08/17 05:22:58;;;;;;;11.20;3.47;;;;;;;;;;4819807;29;20103;-72
2021/08/17 05:25:24;;;;;;;8.85;4.38;;;;;;;;;;4820972;29;20042;-72
2021/08/17 05:27:50;;;;;;;10.20;3.53;;;;;;;;;;4820429;29;20033;-72
2021/08/17 05:30:16;;;;;;;9.50;3.72;;;;;;;;;;4819782;29;20053;-72
2021/08/17 05:32:42;;;;;;;12.98;4.35;;;;;;;;;;4821404;29;20114;-73
2021/08/17 05:35:08;;;;;;;13.88;4.60;;;;;;;;;;4820792;29;20536;-74
2021/08/17 05:37:35;;;;;;;20.08;5.72;;;;;;;;;;4818153;29;20861;-71
2021/08/17 05:40:00;;;;;;;10.60;3.80;;;;;;;;;;4819394;29;20058;-72
2021/08/17 05:42:26;;;;;;;11.32;4.45;;;;;;;;;;4823899;29;20049;-73
2021/08/17 05:44:51;;;;;;;12.18;4.60;;;;;;;;;;4820619;29;20026;-72
2021/08/17 05:47:17;;;;;;;15.57;3.97;;;;;;;;;;4821109;29;20045;-72
2021/08/17 05:49:42;;;;;;;32.85;5.00;;;;;;;;;;4821769;29;20125;-72
2021/08/17 05:52:11;;;;;;;10.48;4.93;;;;;;;;;;4842615;29;20038;-72
2021/08/17 05:54:36;;;;;;;8.10;3.67;;;;;;;;;;4822790;29;20037;-72
2021/08/17 05:57:02;;;;;;;15.55;4.57;;;;;;;;;;4822659;29;20038;-72
2021/08/17 05:59:29;;;;;;;11.80;3.95;;;;;;;;;;4820578;29;20121;-72
2021/08/17 06:01:56;;;;;;;14.60;3.95;;;;;;;;;;4816525;29;20037;-72
2021/08/17 06:04:21;;;;;;;16.55;5.72;;;;;;;;;;4819229;29;20045;-71
2021/08/17 06:06:47;;;;;;;7.72;3.75;;;;;;;;;;4818435;29;20042;-73
2021/08/17 06:09:14;;;;;;;13.15;4.07;;;;;;;;;;4816148;29;20120;-72
2021/08/17 06:11:40;;;;;;;8.13;4.10;;;;;;;;;;4818916;29;20039;-72
2021/08/17 06:14:06;;;;;;;17.70;4.20;;;;;;;;;;4818837;29;20019;-72
2021/08/17 06:16:33;;;;;;;8.05;4.10;;;;;;;;;;4818085;29;20034;-72
2021/08/17 06:18:59;;;;;;;12.23;4.35;;;;;;;;;;4816608;29;20042;-73
2021/08/17 06:21:26;;;;;;;10.98;3.75;;;;;;;;;;4816965;29;20038;-72
2021/08/17 06:23:52;;;;;;;10.35;3.85;;;;;;;;;;4818903;29;20034;-71
2021/08/17 06:26:18;;;;;;;14.32;5.05;;;;;;;;;;4819148;29;20030;-73
2021/08/17 06:28:45;;;;;;;16.23;4.07;;;;;;;;;;4835956;29;20045;-71
2021/08/17 06:31:13;;;;;;;10.75;4.60;;;;;;;;;;4817233;29;20034;-72
2021/08/17 06:33:39;;;;;;;11.40;4.32;;;;;;;;;;4817098;29;20045;-71
2021/08/17 06:36:05;;;;;;;12.07;5.80;;;;;;;;;;4817203;29;20034;-73
2021/08/17 06:38:31;;;;;;;7.72;3.63;;;;;;;;;;4817089;29;20037;-73
2021/08/17 06:40:56;;;;;;;6.93;3.65;;;;;;;;;;4821639;29;20062;-71
2021/08/17 06:43:23;;;;;;;7.57;3.78;;;;;;;;;;4820641;29;20117;-74
2021/08/17 06:45:49;;;;;;;9.00;3.80;;;;;;;;;;4821623;29;20041;-72
2021/08/17 06:48:14;;;;;;;11.10;4.05;;;;;;;;;;4818187;29;20049;-71
2021/08/17 06:50:42;;;;;;;8.85;4.40;;;;;;;;;;4820391;29;20038;-72
2021/08/17 06:53:07;;;;;;;14.00;4.25;;;;;;;;;;4821741;29;20034;-72
2021/08/17 06:55:33;;;;;;;10.85;3.55;;;;;;;;;;4829864;29;20133;-72
2021/08/17 06:57:59;;;;;;;8.10;4.63;;;;;;;;;;4819604;29;20040;-71
2021/08/17 07:00:25;;;;;;;11.20;3.53;;;;;;;;;;4820076;29;20671;-74
2021/08/17 07:02:50;;;;;;;19.63;3.45;;;;;;;;;;4818453;29;20046;-72
2021/08/17 07:05:16;;;;;;;10.93;3.72;;;;;;;;;;4817805;29;20035;-73
2021/08/17 07:07:41;;;;;;;8.82;3.50;;;;;;;;;;4807358;29;20436;-72
2021/08/17 07:10:10;;;;;;;14.38;6.00;;;;;;;;;;4827003;29;20555;-71
2021/08/17 07:12:35;;;;;;;13.75;3.60;;;;;;;;;;4815805;29;20115;-72
2021/08/17 07:15:01;;;;;;;7.05;3.70;;;;;;;;;;4815265;29;20519;-72
2021/08/17 07:17:26;;;;;;;9.80;3.83;;;;;;;;;;4815728;29;20031;-72
2021/08/17 07:19:53;;;;;;;6.13;3.63;;;;;;;;;;4825403;29;20294;-73
2021/08/17 07:22:19;;;;;;;12.40;4.63;;;;;;;;;;4826874;29;20042;-72
2021/08/17 07:24:45;;;;;;;16.15;6.00;;;;;;;;;;4811370;29;20034;-75
2021/08/17 07:27:10;;;;;;;10.82;3.83;;;;;;;;;;4817475;29;20030;-75
2021/08/17 07:29:36;;;;;;;17.80;5.07;;;;;;;;;;4811453;29;20635;-72
2021/08/17 07:32:02;;;;;;;7.45;3.78;;;;;;;;;;4810423;29;20030;-72
2021/08/17 07:34:27;;;;;;;9.23;4.53;;;;;;;;;;4814195;29;20120;-71
2021/08/17 07:36:52;;;;;;;10.55;3.70;;;;;;;;;;4818317;29;20494;-73
2021/08/17 07:39:18;;;;;;;11.85;4.75;;;;;;;;;;4813149;29;20471;-74
2021/08/17 07:41:45;;;;;;;15.30;5.53;;;;;;;;;;4817586;29;20042;-73
2021/08/17 07:44:11;;;;;;;5.93;3.58;;;;;;;;;;4815759;29;20035;-73
2021/08/17 07:46:36;;;;;;;8.73;3.28;;;;;;;;;;4813977;29;20571;-72
2021/08/17 07:49:02;;;;;;;10.57;3.38;;;;;;;;;;4812574;29;20034;-72
2021/08/17 07:51:28;;;;;;;14.43;3.80;;;;;;;;;;4814598;29;20095;-71
2021/08/17 07:53:54;;;;;;;14.02;3.28;;;;;;;;;;4817521;29;20110;-72
2021/08/17 07:56:20;;;;;;;7.70;3.47;;;;;;;;;;4826567;29;20180;-71
2021/08/17 07:58:46;;;;;;;10.60;3.20;;;;;;;;;;4809456;29;20038;-74
2021/08/17 08:01:13;;;;;;;9.70;3.17;;;;;;;;;;4827527;29;20098;-73
2021/08/17 08:03:40;;;;;;;9.90;3.53;;;;;;;;;;4814818;29;20038;-72
2021/08/17 08:06:09;;;;;;;10.02;3.65;;;;;;;;;;4815173;29;20073;-73
2021/08/17 08:08:35;;;;;;;10.65;4.18;;;;;;;;;;4801766;29;20432;-71
2021/08/17 08:11:02;;;;;;;11.82;4.63;;;;;;;;;;4813117;29;20060;-74
2021/08/17 08:13:29;;;;;;;6.82;3.38;;;;;;;;;;4811900;29;20038;-73
2021/08/17 08:15:55;;;;;;;22.15;3.92;;;;;;;;;;4809386;29;20430;-72
2021/08/17 08:18:20;;;;;;;8.52;3.97;;;;;;;;;;4814003;29;20083;-73
2021/08/17 08:20:46;;;;;;;17.77;3.60;;;;;;;;;;4815651;29;20071;-73
2021/08/17 08:23:12;;;;;;;6.05;3.83;;;;;;;;;;4829335;29;20030;-73
2021/08/17 08:25:38;;;;;;;8.77;4.65;;;;;;;;;;4814924;29;20162;-73
2021/08/17 08:28:03;;;;;;;7.10;3.50;;;;;;;;;;4814880;29;20106;-73
2021/08/17 08:30:29;;;;;;;9.13;3.97;;;;;;;;;;4816022;29;20536;-73
2021/08/17 08:32:55;;;;;;;11.65;3.40;;;;;;;;;;4818672;29;20034;-72
2021/08/17 08:35:21;;;;;;;8.70;3.30;;;;;;;;;;4815079;29;20035;-73
2021/08/17 08:37:47;;;;;;;5.63;3.08;;;;;;;;;;4816919;29;20026;-75
2021/08/17 08:40:12;;;;;;;29.98;14.52;;;;;;;;;;4819399;29;20145;-71
2021/08/17 08:42:39;;;;;;;7.10;3.20;;;;;;;;;;4810211;29;21199;-75
2021/08/17 08:45:05;;;;;;;11.05;4.00;;;;;;;;;;4797439;29;20042;-73
2021/08/17 08:47:34;;;;;;;8.25;3.30;;;;;;;;;;4817380;29;20876;-72
2021/08/17 08:50:01;;;;;;;6.40;3.03;;;;;;;;;;4811250;29;20026;-72
2021/08/17 08:52:26;;;;;;;7.60;3.50;;;;;;;;;;4826939;29;20678;-72
2021/08/17 08:54:56;;;;;;;11.70;3.60;;;;;;;;;;4817999;29;20078;-72
2021/08/17 08:57:22;;;;;;;11.07;3.13;;;;;;;;;;4816917;29;20095;-74
2021/08/17 08:59:47;;;;;;;7.07;3.40;;;;;;;;;;4813328;29;20599;-73
2021/08/17 09:02:17;;;;;;;7.72;2.85;;;;;;;;;;4816774;29;20078;-73
2021/08/17 09:04:54;;;;;;;9.60;3.30;;;;;;;;;;4812779;29;20037;-72
2021/08/17 09:07:39;;;;;;;6.97;3.17;;;;;;;;;;4815605;29;20026;-75
2021/08/17 09:10:08;;;;;;;9.50;3.70;;;;;;;;;;4828392;29;20428;-73
2021/08/17 09:12:40;;;;;;;8.05;2.50;;;;;;;;;;4815955;29;20038;-74
2021/08/17 09:15:14;;;;;;;5.32;3.15;;;;;;;;;;4812891;29;20072;-72
2021/08/17 09:17:43;;;;;;;5.28;3.13;;;;;;;;;;4814721;29;20578;-73
2021/08/17 09:20:15;;;;;;;8.57;3.10;;;;;;;;;;4816737;29;20038;-72
2021/08/17 09:22:43;;;;;;;;;;;;;;;;;;4809062;29;20038;-73
2021/08/17 09:25:09;;;;;;;5.88;2.22;;;;;;;;;;4813463;29;19956;-71
2021/08/17 09:27:38;;;;;;;4.80;2.75;;;;;;;;;;4809996;29;20725;-71
2021/08/17 09:30:06;;;;;;;3.92;2.28;;;;;;;;;;4810192;29;20122;-72
2021/08/17 09:32:32;;;;;;;5.32;2.70;;;;;;;;;;4825468;29;20086;-72
2021/08/17 09:35:00;;;;;;;6.45;2.90;;;;;;;;;;4811269;29;20424;-75
2021/08/17 09:37:31;;;;;;;8.00;3.30;;;;;;;;;;4822750;29;20048;-71
2021/08/17 09:40:00;;;;;;;6.32;2.70;;;;;;;;;;4807538;29;21128;-76
2021/08/17 09:42:33;;;;;;;5.00;2.20;;;;;;;;;;4814749;29;20107;-73
2021/08/17 09:45:15;;;;;;;3.45;2.13;;;;;;;;;;4815807;29;20035;-73
2021/08/17 09:47:44;;;;;;;7.32;2.35;;;;;;;;;;4812555;29;20065;-73
2021/08/17 09:50:41;;;;;;;3.80;2.10;;;;;;;;;;4816507;29;20054;-74
2021/08/17 09:53:11;;;;;;;4.40;2.30;;;;;;;;;;4803968;29;20050;-74
2021/08/17 09:55:48;;;;;;;9.70;2.40;;;;;;;;;;4817758;29;20038;-73
2021/08/17 09:58:31;;;;;;;9.13;2.53;;;;;;;;;;4826578;29;20432;-75
2021/08/17 10:01:00;;;;;;;3.47;2.22;;;;;;;;;;4812216;29;20141;-73
2021/08/17 10:03:27;;;;;;;5.45;2.55;;;;;;;;;;4817889;29;20558;-73
2021/08/17 10:05:55;;;;;;;8.50;2.65;;;;;;;;;;4811813;29;20511;-73
2021/08/17 10:08:22;;;;;;;5.63;2.65;;;;;;;;;;4809146;29;20038;-72
2021/08/17 10:10:50;;;;;;;5.38;2.67;;;;;;;;;;4811788;29;20646;-74
2021/08/17 10:13:20;;;;;;;6.93;2.65;;;;;;;;;;4810733;29;20033;-75
2021/08/17 10:15:47;;;;;;;2.88;1.80;;;;;;;;;;4814230;29;20472;-75
2021/08/17 10:18:17;;;;;;;6.40;2.90;;;;;;;;;;4809646;29;20040;-75
2021/08/17 10:20:47;;;;;;;7.82;1.90;;;;;;;;;;4813703;29;20435;-74
2021/08/17 10:23:16;;;;;;;2.47;1.48;;;;;;;;;;4815732;29;20041;-74
2021/08/17 10:25:50;;;;;;;3.95;2.00;;;;;;;;;;4831315;29;20034;-74
2021/08/17 10:28:40;;;;;;;7.43;2.60;;;;;;;;;;4816274;29;20716;-74
2021/08/17 10:31:27;;;;;;;2.28;1.60;;;;;;;;;;4823246;29;20042;-73
2021/08/17 10:34:05;;;;;;;4.72;1.80;;;;;;;;;;4812975;29;20042;-74
2021/08/17 10:36:45;;;;;;;2.63;1.70;;;;;;;;;;4815350;29;20049;-72
2021/08/17 10:39:17;;;;;;;6.63;2.03;;;;;;;;;;4815562;29;20569;-74
2021/08/17 10:41:43;;;;;;;;;;;;;;;;;;4817311;29;20133;-74
2021/08/17 10:44:15;;;;;;;7.10;2.20;;;;;;;;;;4816084;29;20298;-73
2021/08/17 10:46:53;;;;;;;5.55;2.05;;;;;;;;;;4814195;29;20585;-72
2021/08/17 10:49:43;;;;;;;14.30;3.72;;;;;;;;;;4810180;29;20409;-74
2021/08/17 10:52:12;;;;;;;8.38;2.22;;;;;;;;;;4816194;29;20041;-71
2021/08/17 10:54:39;;;;;;;7.13;2.30;;;;;;;;;;4816436;29;20202;-73
2021/08/17 10:57:24;;;;;;;3.55;2.08;;;;;;;;;;4826280;29;20074;-74
2021/08/17 10:59:50;;;;;;;5.07;2.65;;;;;;;;;;4809904;29;20034;-72
2021/08/17 11:02:22;;;;;;;7.88;2.58;;;;;;;;;;4814608;29;20050;-73
2021/08/17 11:04:49;;;;;;;5.15;2.38;;;;;;;;;;4808473;29;20035;-73
2021/08/17 11:07:33;;;;;;;8.98;2.55;;;;;;;;;;4817950;29;20122;-73
2021/08/17 11:10:03;;;;;;;9.07;2.72;;;;;;;;;;4813205;29;20038;-72
2021/08/17 11:12:37;;;;;;;7.95;2.83;;;;;;;;;;4814307;29;20062;-73
2021/08/17 11:15:06;;;;;;;4.68;2.72;;;;;;;;;;4827689;29;20035;-74
2021/08/17 11:17:32;;;;;;;6.10;3.10;;;;;;;;;;4794165;29;20054;-74
2021/08/17 11:19:58;;;;;;;9.73;3.75;;;;;;;;;;4810372;29;20030;-72
2021/08/17 11:22:26;;;;;;;8.52;3.75;;;;;;;;;;4803533;29;20046;-73
2021/08/17 11:24:59;;;;;;;6.88;3.20;;;;;;;;;;4814858;29;20090;-74
2021/08/17 11:27:35;;;;;;;8.20;2.97;;;;;;;;;;4814190;29;20026;-72
2021/08/17 11:30:15;;;;;;;9.00;2.90;;;;;;;;;;4812306;29;20034;-74
2021/08/17 11:32:44;;;;;;;12.30;3.20;;;;;;;;;;4812098;29;20392;-73
2021/08/17 11:35:12;;;;;;;6.10;2.70;;;;;;;;;;4814268;29;20049;-73
2021/08/17 11:37:42;;;;;;;9.50;3.88;;;;;;;;;;4812167;29;20038;-73
2021/08/17 11:40:08;;;;;;;13.30;3.33;;;;;;;;;;4813541;29;20073;-74
2021/08/17 11:42:36;;;;;;;5.43;2.85;;;;;;;;;;4816577;29;20045;-73
2021/08/17 11:45:07;;;;;;;9.32;3.13;;;;;;;;;;4811281;29;20045;-74
2021/08/17 11:47:35;;;;;;;8.73;3.30;;;;;;;;;;4814662;29;20045;-73
2021/08/17 11:50:06;;;;;;;8.90;3.58;;;;;;;;;;4815661;29;20075;-73
2021/08/17 11:52:39;;;;;;;5.28;3.20;;;;;;;;;;4802322;29;20041;-74
2021/08/17 11:55:06;;;;;;;8.07;3.47;;;;;;;;;;4820491;29;20095;-73
2021/08/17 11:57:38;;;;;;;6.43;3.58;;;;;;;;;;4814328;29;20045;-73
2021/08/17 12:00:12;;;;;;;13.85;3.83;;;;;;;;;;4810400;29;20447;-72
2021/08/17 12:02:43;;;;;;;11.73;4.30;;;;;;;;;;4811206;29;20282;-73
2021/08/17 12:05:22;;;;;;;8.70;3.95;;;;;;;;;;4824827;29;20039;-74
2021/08/17 12:07:50;;;;;;;7.22;3.00;;;;;;;;;;4813102;29;20797;-73
2021/08/17 12:10:20;;;;;;;8.15;4.15;;;;;;;;;;4809955;29;20037;-74
2021/08/17 12:13:17;;;;;;;12.73;3.78;;;;;;;;;;4767653;29;20934;-73
2021/08/17 12:15:43;;;;;;;7.70;3.47;;;;;;;;;;4757709;30;20419;-73
2021/08/17 12:18:22;;;;;;;7.63;3.33;;;;;;;;;;4755011;30;20904;-74
2021/08/17 12:21:01;;;;;;;8.27;3.80;;;;;;;;;;4757586;30;20986;-73
2021/08/17 12:23:35;;;;;;;12.25;4.72;;;;;;;;;;4760794;30;20099;-73
2021/08/17 12:26:16;;;;;;;9.65;3.55;;;;;;;;;;4750785;30;20048;-74
2021/08/17 12:28:50;;;;;;;15.40;3.40;;;;;;;;;;4744539;30;20039;-73
2021/08/17 12:31:31;;;;;;;10.95;3.88;;;;;;;;;;4755296;30;20521;-73
2021/08/17 12:34:11;;;;;;;10.25;3.30;;;;;;;;;;4756622;30;20059;-73
2021/08/17 12:36:46;;;;;;;17.98;5.20;;;;;;;;;;4757137;30;20035;-73
2021/08/17 12:39:30;;;;;;;13.10;4.45;;;;;;;;;;4760134;30;20059;-72
2021/08/17 12:42:06;;;;;;;15.25;7.85;;;;;;;;;;4755947;30;20067;-73
2021/08/17 12:44:37;;;;;;;7.57;3.70;;;;;;;;;;4762102;30;20023;-75
2021/08/17 12:47:14;;;;;;;15.60;4.70;;;;;;;;;;4746904;30;20051;-73
2021/08/17 12:50:00;;;;;;;10.85;4.32;;;;;;;;;;4743405;30;20040;-73
2021/08/17 12:52:35;;;;;;;10.20;4.22;;;;;;;;;;4757594;30;20031;-73
2021/08/17 12:55:04;;;;;;;22.10;3.85;;;;;;;;;;4764129;30;20127;-74
2021/08/17 12:57:30;;;;;;;11.25;3.67;;;;;;;;;;4744349;30;20039;-74
2021/08/17 12:59:58;;;;;;;8.98;4.78;;;;;;;;;;4768374;29;20485;-74
2021/08/17 13:02:27;;;;;;;12.65;4.18;;;;;;;;;;4753665;30;20049;-75
2021/08/17 13:04:52;;;;;;;10.52;3.97;;;;;;;;;;4758297;30;20131;-74
2021/08/17 13:07:18;;;;;;;10.93;4.38;;;;;;;;;;4748638;30;20035;-74
2021/08/17 13:09:44;;;;;;;12.95;4.60;;;;;;;;;;4759747;30;20047;-73
2021/08/17 13:12:10;;;;;;;12.93;4.55;;;;;;;;;;4742030;30;20032;-73
2021/08/17 13:14:37;;;;;;;16.17;4.57;;;;;;;;;;4764502;29;20035;-74
2021/08/17 13:17:04;;;;;;;12.90;4.45;;;;;;;;;;4752671;30;20035;-74
2021/08/17 13:19:30;;;;;;;13.65;5.18;;;;;;;;;;4757141;30;20168;-74
2021/08/17 13:21:55;;;;;;;13.85;4.60;;;;;;;;;;4754062;30;20375;-73
2021/08/17 13:24:21;;;;;;;13.40;4.68;;;;;;;;;;4749958;30;20031;-75
2021/08/17 13:26:47;;;;;;;13.38;4.60;;;;;;;;;;4752786;30;20036;-73
2021/08/17 13:29:13;;;;;;;10.07;4.40;;;;;;;;;;4745534;30;20116;-74
2021/08/17 13:31:40;;;;;;;11.98;5.13;;;;;;;;;;4757340;30;20043;-74
2021/08/17 13:34:06;;;;;;;11.95;4.85;;;;;;;;;;4755673;30;20032;-75
2021/08/17 13:36:32;;;;;;;8.77;4.53;;;;;;;;;;4759737;30;20032;-73
2021/08/17 13:38:57;;;;;;;11.35;4.75;;;;;;;;;;4753477;30;20446;-73
2021/08/17 13:41:23;;;;;;;9.27;4.50;;;;;;;;;;4744630;30;20039;-74
2021/08/17 13:43:48;;;;;;;12.73;5.25;;;;;;;;;;4758575;30;20039;-75
2021/08/17 13:46:14;;;;;;;17.13;4.97;;;;;;;;;;4760228;30;20039;-74
2021/08/17 13:48:39;;;;;;;8.57;5.00;;;;;;;;;;4763502;30;20467;-74
2021/08/17 13:51:05;;;;;;;9.55;4.75;;;;;;;;;;4761519;30;20047;-74
2021/08/17 13:53:30;;;;;;;12.95;5.20;;;;;;;;;;4746933;30;20462;-75
2021/08/17 13:55:58;;;;;;;14.63;5.10;;;;;;;;;;4744924;30;20031;-73
2021/08/17 13:58:23;;;;;;;11.45;4.22;;;;;;;;;;4761417;30;20062;-75
2021/08/17 14:00:49;;;;;;;12.20;5.47;;;;;;;;;;4744451;30;20500;-74
2021/08/17 14:03:14;;;;;;;12.80;5.70;;;;;;;;;;4759716;30;20036;-74
2021/08/17 14:05:40;;;;;;;20.85;7.22;;;;;;;;;;4759386;30;20046;-74
2021/08/17 14:08:06;;;;;;;14.38;4.85;;;;;;;;;;4757793;30;20039;-73
2021/08/17 14:10:32;;;;;;;11.15;4.47;;;;;;;;;;4746113;30;20146;-73
2021/08/17 14:12:59;;;;;;;9.63;4.68;;;;;;;;;;4760778;30;20056;-73
2021/08/17 14:15:25;;;;;;;11.02;5.00;;;;;;;;;;4758560;30;20067;-74
2021/08/17 14:17:51;;;;;;;11.38;5.38;;;;;;;;;;4761166;30;20039;-74
2021/08/17 14:20:17;;;;;;;13.70;5.07;;;;;;;;;;4757019;30;20047;-75
2021/08/17 14:22:42;;;;;;;14.68;5.55;;;;;;;;;;4756776;30;20031;-73
2021/08/17 14:25:08;;;;;;;12.32;5.68;;;;;;;;;;4760316;30;20028;-74
2021/08/17 14:27:34;;;;;;;9.23;5.18;;;;;;;;;;4758776;30;20421;-73
2021/08/17 14:30:00;;;;;;;13.55;5.40;;;;;;;;;;4759898;30;20059;-75
2021/08/17 14:32:25;;;;;;;15.00;6.05;;;;;;;;;;4759234;30;20093;-74
2021/08/17 14:34:51;;;;;;;12.90;5.03;;;;;;;;;;4761286;30;20051;-74
2021/08/17 14:37:17;;;;;;;17.08;6.00;;;;;;;;;;4760186;30;20043;-74
2021/08/17 14:39:43;;;;;;;20.85;5.25;;;;;;;;;;4742856;30;20086;-74
2021/08/17 14:42:09;;;;;;;14.60;5.50;;;;;;;;;;4763117;30;20031;-74